JAL919 RJTT-ROAH
Flight info
| Callsign | JAL919 |
|---|---|
| Flight time | 2h 31m |
| Altitude | 40000 |
| Route | LAXAS Y56 TOHME Y54 KOHWA Y12 AYANO Y128 LAXEL Y52 TONAR Y525 IHEYA |
| Aircraft | A359/H-SDE2E3GHIJ1J3J4J5LM1ORWXY/LB1D1 |
Departure
| Time | 2026-04-25 06:28 |
|---|---|
| Airport | Tokyo Haneda International Airport (RJTT) |
Arrival
| Time | 2026-04-25 08:59 |
|---|---|
| Airport | Naha International Airport (ROAH) |
| Time | Latitude | Longitude | Altitude | Speed | Heading |
|---|---|---|---|---|---|
| 2026-04-25 05:51 | 35.54782 | 139.78265 | 17 ft | 0 kts | 54° |
| 2026-04-25 06:11 | 35.54775 | 139.78254 | 30 ft | 3 kts | 54° |
| 2026-04-25 06:11 | 35.54763 | 139.78234 | 27 ft | 3 kts | 54° |
| 2026-04-25 06:12 | 35.54752 | 139.78216 | 28 ft | 3 kts | 63° |
| 2026-04-25 06:12 | 35.54746 | 139.78199 | 28 ft | 3 kts | 92° |
| 2026-04-25 06:12 | 35.54747 | 139.78185 | 27 ft | 3 kts | 127° |
| 2026-04-25 06:12 | 35.54760 | 139.78169 | 27 ft | 3 kts | 146° |
| 2026-04-25 06:13 | 35.54772 | 139.78159 | 27 ft | 1 kts | 149° |
| 2026-04-25 06:13 | 35.54773 | 139.78159 | 27 ft | 0 kts | 149° |
| 2026-04-25 06:16 | 35.54765 | 139.78165 | 27 ft | 3 kts | 150° |
| 2026-04-25 06:16 | 35.54734 | 139.78187 | 29 ft | 7 kts | 150° |
| 2026-04-25 06:16 | 35.54681 | 139.78224 | 30 ft | 8 kts | 150° |
| 2026-04-25 06:17 | 35.54631 | 139.78250 | 30 ft | 9 kts | 176° |
| 2026-04-25 06:17 | 35.54574 | 139.78205 | 28 ft | 10 kts | 212° |
| 2026-04-25 06:17 | 35.54506 | 139.78222 | 27 ft | 12 kts | 151° |
| 2026-04-25 06:17 | 35.54425 | 139.78278 | 27 ft | 14 kts | 150° |
| 2026-04-25 06:18 | 35.54332 | 139.78343 | 27 ft | 17 kts | 150° |
| 2026-04-25 06:18 | 35.54227 | 139.78416 | 29 ft | 18 kts | 150° |
| 2026-04-25 06:18 | 35.54110 | 139.78500 | 27 ft | 21 kts | 149° |
| 2026-04-25 06:18 | 35.53981 | 139.78593 | 27 ft | 22 kts | 149° |
| 2026-04-25 06:19 | 35.53854 | 139.78684 | 28 ft | 16 kts | 149° |
| 2026-04-25 06:19 | 35.53764 | 139.78750 | 28 ft | 16 kts | 145° |
| 2026-04-25 06:19 | 35.53668 | 139.78845 | 26 ft | 20 kts | 140° |
| 2026-04-25 06:19 | 35.53557 | 139.78962 | 28 ft | 22 kts | 140° |
| 2026-04-25 06:20 | 35.53459 | 139.79064 | 27 ft | 13 kts | 140° |
| 2026-04-25 06:20 | 35.53405 | 139.79123 | 28 ft | 11 kts | 131° |
| 2026-04-25 06:20 | 35.53374 | 139.79207 | 29 ft | 10 kts | 104° |
| 2026-04-25 06:20 | 35.53391 | 139.79292 | 31 ft | 12 kts | 62° |
| 2026-04-25 06:21 | 35.53434 | 139.79385 | 31 ft | 13 kts | 60° |
| 2026-04-25 06:21 | 35.53482 | 139.79487 | 28 ft | 14 kts | 60° |
| 2026-04-25 06:21 | 35.53530 | 139.79589 | 28 ft | 15 kts | 59° |
| 2026-04-25 06:21 | 35.53590 | 139.79715 | 29 ft | 19 kts | 60° |
| 2026-04-25 06:22 | 35.53654 | 139.79850 | 28 ft | 16 kts | 60° |
| 2026-04-25 06:22 | 35.53695 | 139.79936 | 27 ft | 9 kts | 60° |
| 2026-04-25 06:22 | 35.53699 | 139.80011 | 27 ft | 10 kts | 115° |
| 2026-04-25 06:22 | 35.53642 | 139.80070 | 29 ft | 11 kts | 149° |
| 2026-04-25 06:23 | 35.53568 | 139.80123 | 33 ft | 16 kts | 150° |
| 2026-04-25 06:23 | 35.53448 | 139.80208 | 38 ft | 21 kts | 149° |
| 2026-04-25 06:23 | 35.53324 | 139.80296 | 43 ft | 20 kts | 150° |
| 2026-04-25 06:23 | 35.53205 | 139.80380 | 48 ft | 19 kts | 150° |
| 2026-04-25 06:24 | 35.53091 | 139.80461 | 50 ft | 18 kts | 150° |
| 2026-04-25 06:24 | 35.53019 | 139.80513 | 49 ft | 10 kts | 150° |
| 2026-04-25 06:24 | 35.52950 | 139.80509 | 51 ft | 11 kts | 211° |
| 2026-04-25 06:24 | 35.52884 | 139.80440 | 47 ft | 14 kts | 222° |
| 2026-04-25 06:25 | 35.52809 | 139.80356 | 51 ft | 16 kts | 223° |
| 2026-04-25 06:25 | 35.52724 | 139.80260 | 52 ft | 18 kts | 222° |
| 2026-04-25 06:25 | 35.52640 | 139.80166 | 53 ft | 10 kts | 222° |
| 2026-04-25 06:25 | 35.52575 | 139.80154 | 52 ft | 11 kts | 156° |
| 2026-04-25 06:26 | 35.52519 | 139.80214 | 51 ft | 10 kts | 132° |
| 2026-04-25 06:26 | 35.52463 | 139.80288 | 49 ft | 10 kts | 132° |
| 2026-04-25 06:26 | 35.52431 | 139.80333 | 54 ft | 5 kts | 128° |
| 2026-04-25 06:26 | 35.52428 | 139.80362 | 54 ft | 3 kts | 81° |
| 2026-04-25 06:27 | 35.52441 | 139.80390 | 57 ft | 5 kts | 54° |
| 2026-04-25 06:27 | 35.52473 | 139.80429 | 53 ft | 8 kts | 43° |
| 2026-04-25 06:27 | 35.52595 | 139.80566 | 54 ft | 52 kts | 42° |
| 2026-04-25 06:27 | 35.53065 | 139.81094 | 49 ft | 128 kts | 42° |
| 2026-04-25 06:28 | 35.53850 | 139.81972 | 392 ft | 163 kts | 42° |
| 2026-04-25 06:28 | 35.54634 | 139.82970 | 1306 ft | 164 kts | 59° |
| 2026-04-25 06:28 | 35.54890 | 139.84247 | 2034 ft | 151 kts | 96° |
| 2026-04-25 06:28 | 35.54640 | 139.85488 | 2571 ft | 151 kts | 109° |
| 2026-04-25 06:29 | 35.54239 | 139.86745 | 2865 ft | 170 kts | 111° |
| 2026-04-25 06:29 | 35.53896 | 139.87668 | 3060 ft | 183 kts | 116° |
| 2026-04-25 06:29 | 35.52494 | 139.89085 | 3385 ft | 218 kts | 156° |
| 2026-04-25 06:29 | 35.50988 | 139.89703 | 3743 ft | 238 kts | 161° |
| 2026-04-25 06:30 | 35.49351 | 139.90285 | 4253 ft | 250 kts | 162° |
| 2026-04-25 06:30 | 35.48233 | 139.90678 | 4673 ft | 255 kts | 162° |
| 2026-04-25 06:30 | 35.46511 | 139.91293 | 5317 ft | 261 kts | 162° |
| 2026-04-25 06:30 | 35.44694 | 139.91637 | 5874 ft | 270 kts | 180° |
| 2026-04-25 06:31 | 35.42855 | 139.91133 | 6441 ft | 276 kts | 207° |
| 2026-04-25 06:31 | 35.41395 | 139.89619 | 7046 ft | 277 kts | 234° |
| 2026-04-25 06:31 | 35.40344 | 139.87817 | 7660 ft | 278 kts | 237° |
| 2026-04-25 06:31 | 35.39241 | 139.85861 | 8341 ft | 280 kts | 237° |
| 2026-04-25 06:32 | 35.38117 | 139.83903 | 9016 ft | 282 kts | 236° |
| 2026-04-25 06:32 | 35.36597 | 139.81271 | 9936 ft | 284 kts | 236° |
| 2026-04-25 06:32 | 35.35839 | 139.79957 | 10291 ft | 289 kts | 236° |
| 2026-04-25 06:32 | 35.34648 | 139.77900 | 10596 ft | 303 kts | 236° |
| 2026-04-25 06:33 | 35.33392 | 139.75746 | 10883 ft | 317 kts | 236° |
| 2026-04-25 06:33 | 35.32081 | 139.73503 | 11162 ft | 330 kts | 236° |
| 2026-04-25 06:33 | 35.30716 | 139.71167 | 11503 ft | 340 kts | 236° |
| 2026-04-25 06:33 | 35.29331 | 139.68797 | 11976 ft | 345 kts | 236° |
| 2026-04-25 06:34 | 35.27928 | 139.66396 | 12493 ft | 348 kts | 236° |
| 2026-04-25 06:34 | 35.26511 | 139.63975 | 13021 ft | 351 kts | 236° |
| 2026-04-25 06:34 | 35.25080 | 139.61531 | 13537 ft | 355 kts | 236° |
| 2026-04-25 06:34 | 35.23741 | 139.59244 | 13995 ft | 357 kts | 236° |
| 2026-04-25 06:35 | 35.22255 | 139.56710 | 14498 ft | 359 kts | 235° |
| 2026-04-25 06:35 | 35.20798 | 139.54225 | 15037 ft | 358 kts | 236° |
| 2026-04-25 06:35 | 35.19349 | 139.51756 | 15600 ft | 357 kts | 236° |
| 2026-04-25 06:35 | 35.17904 | 139.49288 | 16169 ft | 356 kts | 236° |
| 2026-04-25 06:36 | 35.16461 | 139.46833 | 16712 ft | 355 kts | 236° |
| 2026-04-25 06:36 | 35.15019 | 139.44383 | 17284 ft | 355 kts | 236° |
| 2026-04-25 06:36 | 35.13576 | 139.41933 | 17818 ft | 355 kts | 236° |
| 2026-04-25 06:36 | 35.12136 | 139.39488 | 18369 ft | 354 kts | 236° |
| 2026-04-25 06:37 | 35.10697 | 139.37046 | 18827 ft | 354 kts | 236° |
| 2026-04-25 06:37 | 35.09247 | 139.34599 | 19246 ft | 355 kts | 236° |
| 2026-04-25 06:37 | 35.07802 | 139.32146 | 19638 ft | 357 kts | 236° |
| 2026-04-25 06:37 | 35.06368 | 139.29715 | 20031 ft | 358 kts | 236° |
| 2026-04-25 06:38 | 35.04904 | 139.27234 | 20409 ft | 359 kts | 236° |
| 2026-04-25 06:38 | 35.03575 | 139.24650 | 20786 ft | 359 kts | 244° |
| 2026-04-25 06:38 | 35.02694 | 139.21806 | 21173 ft | 359 kts | 253° |
| 2026-04-25 06:38 | 35.02070 | 139.18846 | 21574 ft | 361 kts | 257° |
| 2026-04-25 06:39 | 35.01560 | 139.15838 | 21971 ft | 361 kts | 258° |
| 2026-04-25 06:39 | 35.01102 | 139.12857 | 22338 ft | 363 kts | 259° |
| 2026-04-25 06:39 | 35.00643 | 139.09835 | 22709 ft | 364 kts | 259° |
| 2026-04-25 06:39 | 35.00169 | 139.06792 | 23071 ft | 365 kts | 258° |
| 2026-04-25 06:40 | 34.99678 | 139.03751 | 23384 ft | 366 kts | 258° |
| 2026-04-25 06:40 | 34.99173 | 139.00703 | 23723 ft | 368 kts | 258° |
| 2026-04-25 06:40 | 34.98812 | 138.97604 | 24038 ft | 369 kts | 263° |
| 2026-04-25 06:40 | 34.98583 | 138.94485 | 24347 ft | 369 kts | 264° |
| 2026-04-25 06:41 | 34.98394 | 138.91365 | 24648 ft | 369 kts | 264° |
| 2026-04-25 06:41 | 34.98228 | 138.88245 | 24980 ft | 369 kts | 264° |
| 2026-04-25 06:41 | 34.98072 | 138.85119 | 25281 ft | 369 kts | 264° |
| 2026-04-25 06:41 | 34.97918 | 138.82005 | 25580 ft | 369 kts | 264° |
| 2026-04-25 06:42 | 34.97762 | 138.78870 | 25941 ft | 369 kts | 264° |
| 2026-04-25 06:42 | 34.97602 | 138.75757 | 26299 ft | 368 kts | 264° |
| 2026-04-25 06:42 | 34.97439 | 138.72644 | 26632 ft | 368 kts | 264° |
| 2026-04-25 06:42 | 34.97273 | 138.69536 | 26959 ft | 368 kts | 264° |
| 2026-04-25 06:43 | 34.97105 | 138.66412 | 27299 ft | 368 kts | 264° |
| 2026-04-25 06:43 | 34.96935 | 138.63293 | 27648 ft | 368 kts | 264° |
| 2026-04-25 06:43 | 34.96766 | 138.60178 | 27999 ft | 368 kts | 264° |
| 2026-04-25 06:43 | 34.96595 | 138.57057 | 28377 ft | 368 kts | 264° |
| 2026-04-25 06:44 | 34.96425 | 138.53947 | 28751 ft | 368 kts | 263° |
| 2026-04-25 06:44 | 34.96253 | 138.50822 | 29127 ft | 369 kts | 263° |
| 2026-04-25 06:44 | 34.96081 | 138.47711 | 29512 ft | 369 kts | 263° |
| 2026-04-25 06:44 | 34.95907 | 138.44586 | 29885 ft | 369 kts | 263° |
| 2026-04-25 06:45 | 34.95732 | 138.41461 | 30250 ft | 370 kts | 263° |
| 2026-04-25 06:45 | 34.95556 | 138.38322 | 30571 ft | 371 kts | 263° |
| 2026-04-25 06:45 | 34.95379 | 138.35189 | 30849 ft | 372 kts | 263° |
| 2026-04-25 06:45 | 34.95202 | 138.32073 | 31125 ft | 374 kts | 263° |
| 2026-04-25 06:46 | 34.95020 | 138.28899 | 31412 ft | 376 kts | 263° |
| 2026-04-25 06:46 | 34.94838 | 138.25710 | 31789 ft | 376 kts | 262° |
| 2026-04-25 06:46 | 34.94656 | 138.22530 | 32107 ft | 377 kts | 262° |
| 2026-04-25 06:46 | 34.94473 | 138.19343 | 32404 ft | 377 kts | 262° |
| 2026-04-25 06:47 | 34.94289 | 138.16144 | 32668 ft | 378 kts | 262° |
| 2026-04-25 06:47 | 34.94108 | 138.12947 | 33002 ft | 378 kts | 262° |
| 2026-04-25 06:47 | 34.93923 | 138.09756 | 33269 ft | 379 kts | 261° |
| 2026-04-25 06:47 | 34.93733 | 138.06545 | 33530 ft | 380 kts | 261° |
| 2026-04-25 06:48 | 34.93542 | 138.03334 | 33813 ft | 380 kts | 261° |
| 2026-04-25 06:48 | 34.93351 | 138.00114 | 34079 ft | 381 kts | 261° |
| 2026-04-25 06:48 | 34.93157 | 137.96887 | 34342 ft | 381 kts | 261° |
| 2026-04-25 06:48 | 34.92967 | 137.93685 | 34696 ft | 379 kts | 261° |
| 2026-04-25 06:49 | 34.92778 | 137.90492 | 35061 ft | 375 kts | 261° |
| 2026-04-25 06:49 | 34.92592 | 137.87331 | 35463 ft | 372 kts | 261° |
| 2026-04-25 06:49 | 34.92405 | 137.84200 | 35866 ft | 369 kts | 261° |
| 2026-04-25 06:49 | 34.92216 | 137.81084 | 36313 ft | 366 kts | 261° |
| 2026-04-25 06:50 | 34.92026 | 137.78017 | 36764 ft | 362 kts | 261° |
| 2026-04-25 06:50 | 34.91836 | 137.74967 | 37088 ft | 361 kts | 261° |
| 2026-04-25 06:50 | 34.91626 | 137.71920 | 37439 ft | 358 kts | 259° |
| 2026-04-25 06:50 | 34.91232 | 137.68947 | 37832 ft | 354 kts | 255° |
| 2026-04-25 06:51 | 34.90591 | 137.66065 | 38205 ft | 350 kts | 250° |
| 2026-04-25 06:51 | 34.89696 | 137.63327 | 38548 ft | 349 kts | 245° |
| 2026-04-25 06:51 | 34.88550 | 137.60726 | 38874 ft | 348 kts | 242° |
| 2026-04-25 06:51 | 34.87259 | 137.58237 | 39108 ft | 348 kts | 240° |
| 2026-04-25 06:52 | 34.85889 | 137.55790 | 39238 ft | 350 kts | 239° |
| 2026-04-25 06:52 | 34.84487 | 137.53361 | 39390 ft | 352 kts | 238° |
| 2026-04-25 06:52 | 34.83089 | 137.50953 | 39589 ft | 352 kts | 238° |
| 2026-04-25 06:52 | 34.81663 | 137.48482 | 39766 ft | 353 kts | 238° |
| 2026-04-25 06:53 | 34.80277 | 137.46061 | 39978 ft | 353 kts | 238° |
| 2026-04-25 06:53 | 34.78877 | 137.43601 | 40161 ft | 353 kts | 239° |
| 2026-04-25 06:53 | 34.77480 | 137.41136 | 40182 ft | 354 kts | 239° |
| 2026-04-25 06:54 | 34.74689 | 137.36201 | 40184 ft | 354 kts | 239° |
| 2026-04-25 06:54 | 34.71899 | 137.31271 | 40184 ft | 354 kts | 238° |
| 2026-04-25 06:55 | 34.69098 | 137.26331 | 40183 ft | 354 kts | 238° |
| 2026-04-25 06:55 | 34.66303 | 137.21411 | 40183 ft | 354 kts | 238° |
| 2026-04-25 06:56 | 34.63500 | 137.16484 | 40185 ft | 354 kts | 238° |
| 2026-04-25 06:56 | 34.60691 | 137.11560 | 40181 ft | 354 kts | 238° |
| 2026-04-25 06:57 | 34.57886 | 137.06641 | 40183 ft | 354 kts | 238° |
| 2026-04-25 06:57 | 34.55077 | 137.01720 | 40184 ft | 354 kts | 238° |
| 2026-04-25 06:58 | 34.52183 | 136.96867 | 40183 ft | 356 kts | 234° |
| 2026-04-25 06:58 | 34.48612 | 136.92693 | 40185 ft | 364 kts | 224° |
| 2026-04-25 06:59 | 34.44350 | 136.89204 | 40185 ft | 369 kts | 221° |
| 2026-04-25 06:59 | 34.39995 | 136.85940 | 40189 ft | 370 kts | 220° |
| 2026-04-25 07:00 | 34.35611 | 136.82665 | 40185 ft | 370 kts | 220° |
| 2026-04-25 07:00 | 34.31249 | 136.79371 | 40187 ft | 369 kts | 221° |
| 2026-04-25 07:01 | 34.26896 | 136.76068 | 40188 ft | 369 kts | 221° |
| 2026-04-25 07:01 | 34.22546 | 136.72768 | 40186 ft | 369 kts | 221° |
| 2026-04-25 07:02 | 34.18224 | 136.69494 | 40187 ft | 369 kts | 221° |
| 2026-04-25 07:02 | 34.13873 | 136.66204 | 40189 ft | 369 kts | 221° |
| 2026-04-25 07:03 | 34.09518 | 136.62917 | 40187 ft | 369 kts | 220° |
| 2026-04-25 07:03 | 34.05170 | 136.59638 | 40185 ft | 368 kts | 220° |
| 2026-04-25 07:04 | 34.00823 | 136.56364 | 40185 ft | 368 kts | 220° |
| 2026-04-25 07:04 | 33.96478 | 136.53095 | 40194 ft | 368 kts | 220° |
| 2026-04-25 07:05 | 33.92138 | 136.49834 | 40181 ft | 367 kts | 220° |
| 2026-04-25 07:05 | 33.87800 | 136.46578 | 40182 ft | 368 kts | 220° |
| 2026-04-25 07:06 | 33.83455 | 136.43320 | 40182 ft | 368 kts | 220° |
| 2026-04-25 07:06 | 33.79142 | 136.40091 | 40180 ft | 368 kts | 220° |
| 2026-04-25 07:07 | 33.74790 | 136.36836 | 40176 ft | 368 kts | 220° |
| 2026-04-25 07:07 | 33.70438 | 136.33586 | 40174 ft | 368 kts | 220° |
| 2026-04-25 07:08 | 33.66090 | 136.30342 | 40171 ft | 368 kts | 220° |
| 2026-04-25 07:08 | 33.61733 | 136.27097 | 40171 ft | 368 kts | 220° |
| 2026-04-25 07:09 | 33.57374 | 136.23853 | 40170 ft | 368 kts | 220° |
| 2026-04-25 07:09 | 33.53014 | 136.20613 | 40166 ft | 368 kts | 220° |
| 2026-04-25 07:10 | 33.48655 | 136.17377 | 40163 ft | 368 kts | 220° |
| 2026-04-25 07:10 | 33.44323 | 136.14164 | 40164 ft | 369 kts | 220° |
| 2026-04-25 07:11 | 33.39958 | 136.10931 | 40159 ft | 369 kts | 220° |
| 2026-04-25 07:11 | 33.35587 | 136.07698 | 40159 ft | 369 kts | 220° |
| 2026-04-25 07:12 | 33.31217 | 136.04470 | 40154 ft | 369 kts | 219° |
| 2026-04-25 07:12 | 33.25404 | 136.00181 | 40148 ft | 369 kts | 219° |
| 2026-04-25 07:13 | 33.21087 | 135.96862 | 40149 ft | 366 kts | 223° |
| 2026-04-25 07:13 | 33.17332 | 135.92811 | 40147 ft | 360 kts | 230° |
| 2026-04-25 07:14 | 33.13938 | 135.88463 | 40148 ft | 359 kts | 231° |
| 2026-04-25 07:14 | 33.10585 | 135.84040 | 40145 ft | 360 kts | 231° |
| 2026-04-25 07:15 | 33.07208 | 135.79624 | 40138 ft | 360 kts | 231° |
| 2026-04-25 07:15 | 33.03813 | 135.75225 | 40139 ft | 360 kts | 231° |
| 2026-04-25 07:16 | 33.00411 | 135.70834 | 40141 ft | 360 kts | 231° |
| 2026-04-25 07:16 | 32.97029 | 135.66473 | 40139 ft | 360 kts | 231° |
| 2026-04-25 07:17 | 32.93623 | 135.62087 | 40138 ft | 360 kts | 231° |
| 2026-04-25 07:17 | 32.90218 | 135.57705 | 40133 ft | 361 kts | 231° |
| 2026-04-25 07:18 | 32.86804 | 135.53318 | 40135 ft | 361 kts | 231° |
| 2026-04-25 07:18 | 32.83409 | 135.48961 | 40123 ft | 361 kts | 231° |
| 2026-04-25 07:19 | 32.79989 | 135.44577 | 40131 ft | 361 kts | 231° |
| 2026-04-25 07:19 | 32.76571 | 135.40199 | 40131 ft | 362 kts | 231° |
| 2026-04-25 07:20 | 32.73147 | 135.35820 | 40124 ft | 362 kts | 231° |
| 2026-04-25 07:20 | 32.69717 | 135.31438 | 40118 ft | 362 kts | 231° |
| 2026-04-25 07:21 | 32.66287 | 135.27063 | 40113 ft | 362 kts | 231° |
| 2026-04-25 07:21 | 32.62856 | 135.22691 | 40114 ft | 362 kts | 231° |
| 2026-04-25 07:22 | 32.59420 | 135.18318 | 40113 ft | 362 kts | 230° |
| 2026-04-25 07:22 | 32.56004 | 135.13975 | 40110 ft | 362 kts | 230° |
| 2026-04-25 07:23 | 32.52540 | 135.09576 | 40110 ft | 362 kts | 230° |
| 2026-04-25 07:23 | 32.49117 | 135.05235 | 40112 ft | 363 kts | 230° |
| 2026-04-25 07:24 | 32.45671 | 135.00870 | 40111 ft | 363 kts | 230° |
| 2026-04-25 07:24 | 32.42221 | 134.96506 | 40111 ft | 363 kts | 230° |
| 2026-04-25 07:25 | 32.38765 | 134.92139 | 40109 ft | 363 kts | 230° |
| 2026-04-25 07:25 | 32.35305 | 134.87773 | 40105 ft | 363 kts | 230° |
| 2026-04-25 07:26 | 32.31844 | 134.83419 | 40101 ft | 363 kts | 230° |
| 2026-04-25 07:26 | 32.28386 | 134.79064 | 40103 ft | 363 kts | 230° |
| 2026-04-25 07:27 | 32.24926 | 134.74709 | 40100 ft | 363 kts | 230° |
| 2026-04-25 07:27 | 32.21463 | 134.70360 | 40095 ft | 363 kts | 230° |
| 2026-04-25 07:28 | 32.17996 | 134.66010 | 40095 ft | 363 kts | 230° |
| 2026-04-25 07:28 | 32.14531 | 134.61669 | 40095 ft | 364 kts | 230° |
| 2026-04-25 07:29 | 32.11078 | 134.57349 | 40092 ft | 364 kts | 230° |
| 2026-04-25 07:29 | 32.07603 | 134.53006 | 40091 ft | 364 kts | 230° |
| 2026-04-25 07:30 | 32.04122 | 134.48661 | 40087 ft | 364 kts | 230° |
| 2026-04-25 07:30 | 32.00634 | 134.44312 | 40086 ft | 365 kts | 230° |
| 2026-04-25 07:31 | 31.97145 | 134.39967 | 40086 ft | 365 kts | 230° |
| 2026-04-25 07:31 | 31.93676 | 134.35653 | 40080 ft | 365 kts | 230° |
| 2026-04-25 07:32 | 31.90179 | 134.31308 | 40094 ft | 365 kts | 230° |
| 2026-04-25 07:32 | 31.86680 | 134.26966 | 40087 ft | 365 kts | 230° |
| 2026-04-25 07:33 | 31.83183 | 134.22631 | 40071 ft | 365 kts | 230° |
| 2026-04-25 07:33 | 31.79680 | 134.18294 | 40082 ft | 366 kts | 230° |
| 2026-04-25 07:34 | 31.76174 | 134.13959 | 40073 ft | 366 kts | 230° |
| 2026-04-25 07:34 | 31.72662 | 134.09622 | 40076 ft | 366 kts | 230° |
| 2026-04-25 07:35 | 31.69170 | 134.05314 | 40068 ft | 366 kts | 230° |
| 2026-04-25 07:35 | 31.65651 | 134.00978 | 40070 ft | 367 kts | 229° |
| 2026-04-25 07:36 | 31.62125 | 133.96639 | 40068 ft | 367 kts | 229° |
| 2026-04-25 07:36 | 31.58602 | 133.92308 | 40067 ft | 367 kts | 229° |
| 2026-04-25 07:37 | 31.55077 | 133.87980 | 40062 ft | 367 kts | 229° |
| 2026-04-25 07:37 | 31.51566 | 133.83673 | 40061 ft | 367 kts | 229° |
| 2026-04-25 07:38 | 31.48039 | 133.79352 | 40056 ft | 367 kts | 229° |
| 2026-04-25 07:38 | 31.44508 | 133.75033 | 40057 ft | 367 kts | 229° |
| 2026-04-25 07:39 | 31.40976 | 133.70717 | 40059 ft | 367 kts | 229° |
| 2026-04-25 07:39 | 31.37438 | 133.66397 | 40055 ft | 367 kts | 229° |
| 2026-04-25 07:40 | 31.33907 | 133.62091 | 40053 ft | 367 kts | 229° |
| 2026-04-25 07:40 | 31.30369 | 133.57783 | 40052 ft | 367 kts | 229° |
| 2026-04-25 07:41 | 31.26848 | 133.53499 | 40050 ft | 367 kts | 229° |
| 2026-04-25 07:41 | 31.23303 | 133.49192 | 40049 ft | 368 kts | 229° |
| 2026-04-25 07:42 | 31.19757 | 133.44888 | 40048 ft | 368 kts | 229° |
| 2026-04-25 07:42 | 31.16203 | 133.40581 | 40043 ft | 368 kts | 229° |
| 2026-04-25 07:43 | 31.12646 | 133.36275 | 40044 ft | 368 kts | 229° |
| 2026-04-25 07:43 | 31.09093 | 133.31976 | 40040 ft | 368 kts | 229° |
| 2026-04-25 07:44 | 31.05532 | 133.27673 | 40038 ft | 368 kts | 229° |
| 2026-04-25 07:44 | 31.01970 | 133.23375 | 40035 ft | 369 kts | 229° |
| 2026-04-25 07:45 | 30.98427 | 133.19104 | 40036 ft | 369 kts | 229° |
| 2026-04-25 07:45 | 30.94856 | 133.14805 | 40035 ft | 369 kts | 229° |
| 2026-04-25 07:46 | 30.91283 | 133.10508 | 40033 ft | 369 kts | 229° |
| 2026-04-25 07:46 | 30.87704 | 133.06208 | 40030 ft | 370 kts | 229° |
| 2026-04-25 07:47 | 30.84120 | 133.01908 | 40030 ft | 370 kts | 229° |
| 2026-04-25 07:47 | 30.80535 | 132.97612 | 40029 ft | 370 kts | 229° |
| 2026-04-25 07:48 | 30.76947 | 132.93317 | 40034 ft | 370 kts | 229° |
| 2026-04-25 07:48 | 30.73357 | 132.89025 | 40028 ft | 370 kts | 229° |
| 2026-04-25 07:49 | 30.69759 | 132.84727 | 40028 ft | 370 kts | 229° |
| 2026-04-25 07:49 | 30.66191 | 132.80470 | 40030 ft | 370 kts | 229° |
| 2026-04-25 07:50 | 30.62615 | 132.76165 | 40030 ft | 370 kts | 230° |
| 2026-04-25 07:50 | 30.59204 | 132.71693 | 40027 ft | 370 kts | 231° |
| 2026-04-25 07:51 | 30.55830 | 132.67177 | 40026 ft | 370 kts | 231° |
| 2026-04-25 07:51 | 30.52458 | 132.62659 | 40028 ft | 370 kts | 231° |
| 2026-04-25 07:52 | 30.49080 | 132.58145 | 40029 ft | 371 kts | 231° |
| 2026-04-25 07:52 | 30.45694 | 132.53633 | 40030 ft | 371 kts | 231° |
| 2026-04-25 07:53 | 30.42303 | 132.49120 | 40026 ft | 371 kts | 231° |
| 2026-04-25 07:53 | 30.38916 | 132.44618 | 40024 ft | 371 kts | 231° |
| 2026-04-25 07:54 | 30.35546 | 132.40144 | 40023 ft | 371 kts | 231° |
| 2026-04-25 07:54 | 30.32156 | 132.35648 | 40022 ft | 371 kts | 231° |
| 2026-04-25 07:55 | 30.28757 | 132.31145 | 40022 ft | 371 kts | 231° |
| 2026-04-25 07:55 | 30.25354 | 132.26641 | 40021 ft | 371 kts | 231° |
| 2026-04-25 07:56 | 30.21953 | 132.22145 | 40027 ft | 371 kts | 231° |
| 2026-04-25 07:56 | 30.18545 | 132.17645 | 40025 ft | 372 kts | 231° |
| 2026-04-25 07:57 | 30.15714 | 132.13912 | 40017 ft | 372 kts | 230° |
| 2026-04-25 07:57 | 30.12300 | 132.09414 | 40013 ft | 372 kts | 230° |
| 2026-04-25 07:58 | 30.08882 | 132.04915 | 40029 ft | 372 kts | 230° |
| 2026-04-25 07:58 | 30.05484 | 132.00448 | 40009 ft | 372 kts | 230° |
| 2026-04-25 07:59 | 30.02056 | 131.95947 | 40021 ft | 373 kts | 230° |
| 2026-04-25 07:59 | 29.98631 | 131.91454 | 40022 ft | 373 kts | 230° |
| 2026-04-25 08:00 | 29.95203 | 131.86963 | 40013 ft | 373 kts | 230° |
| 2026-04-25 08:00 | 29.91773 | 131.82476 | 40014 ft | 373 kts | 230° |
| 2026-04-25 08:01 | 29.88358 | 131.78013 | 40016 ft | 373 kts | 230° |
| 2026-04-25 08:01 | 29.84920 | 131.73529 | 40012 ft | 373 kts | 230° |
| 2026-04-25 08:02 | 29.81475 | 131.69037 | 40015 ft | 374 kts | 230° |
| 2026-04-25 08:02 | 29.78030 | 131.64545 | 40011 ft | 374 kts | 230° |
| 2026-04-25 08:03 | 29.74582 | 131.60058 | 40010 ft | 374 kts | 230° |
| 2026-04-25 08:03 | 29.71149 | 131.55596 | 40009 ft | 374 kts | 230° |
| 2026-04-25 08:04 | 29.67692 | 131.51108 | 40006 ft | 375 kts | 230° |
| 2026-04-25 08:04 | 29.64236 | 131.46627 | 40012 ft | 375 kts | 230° |
| 2026-04-25 08:05 | 29.60773 | 131.42143 | 40017 ft | 375 kts | 230° |
| 2026-04-25 08:05 | 29.57308 | 131.37659 | 40013 ft | 375 kts | 230° |
| 2026-04-25 08:06 | 29.53834 | 131.33169 | 40010 ft | 375 kts | 230° |
| 2026-04-25 08:06 | 29.50387 | 131.28719 | 40010 ft | 376 kts | 230° |
| 2026-04-25 08:07 | 29.46910 | 131.24236 | 40012 ft | 376 kts | 230° |
| 2026-04-25 08:07 | 29.43430 | 131.19753 | 40009 ft | 376 kts | 230° |
| 2026-04-25 08:08 | 29.39946 | 131.15270 | 40007 ft | 377 kts | 230° |
| 2026-04-25 08:08 | 29.36454 | 131.10782 | 40010 ft | 377 kts | 230° |
| 2026-04-25 08:09 | 29.32961 | 131.06297 | 40010 ft | 377 kts | 230° |
| 2026-04-25 08:09 | 29.29465 | 131.01814 | 40006 ft | 377 kts | 230° |
| 2026-04-25 08:10 | 29.25984 | 130.97355 | 40010 ft | 377 kts | 230° |
| 2026-04-25 08:10 | 29.22488 | 130.92882 | 40007 ft | 377 kts | 230° |
| 2026-04-25 08:11 | 29.18985 | 130.88406 | 40010 ft | 377 kts | 230° |
| 2026-04-25 08:11 | 29.15479 | 130.83929 | 40006 ft | 377 kts | 230° |
| 2026-04-25 08:12 | 29.11971 | 130.79456 | 40011 ft | 378 kts | 230° |
| 2026-04-25 08:12 | 29.08461 | 130.74984 | 40009 ft | 378 kts | 230° |
| 2026-04-25 08:13 | 29.04949 | 130.70515 | 40010 ft | 378 kts | 230° |
| 2026-04-25 08:14 | 28.99691 | 130.63834 | 40010 ft | 378 kts | 230° |
| 2026-04-25 08:14 | 28.96173 | 130.59370 | 40009 ft | 378 kts | 230° |
| 2026-04-25 08:15 | 28.92647 | 130.54901 | 40007 ft | 378 kts | 230° |
| 2026-04-25 08:15 | 28.89118 | 130.50433 | 40008 ft | 379 kts | 230° |
| 2026-04-25 08:16 | 28.85585 | 130.45965 | 40007 ft | 379 kts | 230° |
| 2026-04-25 08:16 | 28.82072 | 130.41527 | 40008 ft | 379 kts | 230° |
| 2026-04-25 08:17 | 28.78537 | 130.37051 | 40009 ft | 379 kts | 230° |
| 2026-04-25 08:17 | 28.75136 | 130.32473 | 40010 ft | 379 kts | 232° |
| 2026-04-25 08:18 | 28.71830 | 130.27783 | 40009 ft | 379 kts | 232° |
| 2026-04-25 08:18 | 28.68515 | 130.23100 | 40010 ft | 379 kts | 232° |
| 2026-04-25 08:19 | 28.65184 | 130.18450 | 40009 ft | 379 kts | 232° |
| 2026-04-25 08:19 | 28.61839 | 130.13807 | 40010 ft | 379 kts | 232° |
| 2026-04-25 08:20 | 28.58497 | 130.09172 | 40006 ft | 379 kts | 232° |
| 2026-04-25 08:20 | 28.55149 | 130.04533 | 40003 ft | 379 kts | 232° |
| 2026-04-25 08:21 | 28.51810 | 129.99911 | 40002 ft | 379 kts | 232° |
| 2026-04-25 08:21 | 28.48463 | 129.95280 | 39997 ft | 379 kts | 232° |
| 2026-04-25 08:22 | 28.45108 | 129.90646 | 39996 ft | 379 kts | 232° |
| 2026-04-25 08:22 | 28.41757 | 129.86022 | 39996 ft | 379 kts | 232° |
| 2026-04-25 08:23 | 28.38397 | 129.81391 | 39994 ft | 379 kts | 232° |
| 2026-04-25 08:23 | 28.35059 | 129.76794 | 39995 ft | 379 kts | 232° |
| 2026-04-25 08:24 | 28.32263 | 129.72948 | 39994 ft | 379 kts | 232° |
| 2026-04-25 08:24 | 28.28595 | 129.67909 | 40000 ft | 379 kts | 232° |
| 2026-04-25 08:25 | 28.25234 | 129.63296 | 40003 ft | 379 kts | 232° |
| 2026-04-25 08:25 | 28.21868 | 129.58681 | 40008 ft | 379 kts | 232° |
| 2026-04-25 08:26 | 28.18500 | 129.54069 | 40014 ft | 380 kts | 232° |
| 2026-04-25 08:26 | 28.15131 | 129.49459 | 40017 ft | 380 kts | 232° |
| 2026-04-25 08:27 | 28.11751 | 129.44840 | 40023 ft | 380 kts | 231° |
| 2026-04-25 08:27 | 28.08398 | 129.40263 | 40023 ft | 380 kts | 231° |
| 2026-04-25 08:28 | 28.05022 | 129.35659 | 40018 ft | 380 kts | 231° |
| 2026-04-25 08:28 | 28.01642 | 129.31056 | 40019 ft | 380 kts | 231° |
| 2026-04-25 08:29 | 27.98257 | 129.26450 | 40033 ft | 381 kts | 231° |
| 2026-04-25 08:29 | 27.94862 | 129.21837 | 40031 ft | 381 kts | 231° |
| 2026-04-25 08:30 | 27.91471 | 129.17232 | 40014 ft | 381 kts | 231° |
| 2026-04-25 08:30 | 27.88092 | 129.12649 | 40016 ft | 381 kts | 231° |
| 2026-04-25 08:31 | 27.84689 | 129.08039 | 40025 ft | 381 kts | 231° |
| 2026-04-25 08:31 | 27.81283 | 129.03437 | 40020 ft | 382 kts | 231° |
| 2026-04-25 08:32 | 27.77872 | 128.98826 | 40024 ft | 382 kts | 231° |
| 2026-04-25 08:32 | 27.74467 | 128.94223 | 40018 ft | 382 kts | 231° |
| 2026-04-25 08:33 | 27.71048 | 128.89608 | 40027 ft | 383 kts | 231° |
| 2026-04-25 08:33 | 27.67621 | 128.84990 | 39981 ft | 383 kts | 231° |
| 2026-04-25 08:33 | 27.65912 | 128.82690 | 39758 ft | 382 kts | 231° |
| 2026-04-25 08:34 | 27.64206 | 128.80395 | 39517 ft | 382 kts | 231° |
| 2026-04-25 08:34 | 27.62498 | 128.78097 | 39285 ft | 383 kts | 231° |
| 2026-04-25 08:34 | 27.60788 | 128.75798 | 38979 ft | 381 kts | 231° |
| 2026-04-25 08:34 | 27.59091 | 128.73518 | 38408 ft | 380 kts | 231° |
| 2026-04-25 08:35 | 27.57411 | 128.71262 | 37739 ft | 380 kts | 231° |
| 2026-04-25 08:35 | 27.55710 | 128.68980 | 37071 ft | 380 kts | 231° |
| 2026-04-25 08:35 | 27.54005 | 128.66693 | 36416 ft | 380 kts | 231° |
| 2026-04-25 08:35 | 27.52302 | 128.64411 | 35745 ft | 382 kts | 231° |
| 2026-04-25 08:36 | 27.50592 | 128.62119 | 35042 ft | 384 kts | 230° |
| 2026-04-25 08:36 | 27.48857 | 128.59806 | 34277 ft | 388 kts | 230° |
| 2026-04-25 08:36 | 27.47107 | 128.57465 | 33390 ft | 392 kts | 230° |
| 2026-04-25 08:36 | 27.45342 | 128.55101 | 32632 ft | 393 kts | 230° |
| 2026-04-25 08:37 | 27.43589 | 128.52756 | 32081 ft | 390 kts | 231° |
| 2026-04-25 08:37 | 27.41867 | 128.50454 | 31512 ft | 388 kts | 231° |
| 2026-04-25 08:37 | 27.40108 | 128.48103 | 30923 ft | 386 kts | 231° |
| 2026-04-25 08:37 | 27.38382 | 128.45798 | 30341 ft | 385 kts | 231° |
| 2026-04-25 08:38 | 27.36675 | 128.43521 | 29706 ft | 384 kts | 231° |
| 2026-04-25 08:38 | 27.34960 | 128.41234 | 29105 ft | 381 kts | 231° |
| 2026-04-25 08:38 | 27.33253 | 128.38959 | 28532 ft | 378 kts | 231° |
| 2026-04-25 08:38 | 27.31560 | 128.36704 | 27960 ft | 376 kts | 231° |
| 2026-04-25 08:39 | 27.29880 | 128.34469 | 27391 ft | 373 kts | 231° |
| 2026-04-25 08:39 | 27.28210 | 128.32245 | 26827 ft | 371 kts | 231° |
| 2026-04-25 08:39 | 27.26541 | 128.30026 | 26245 ft | 370 kts | 231° |
| 2026-04-25 08:39 | 27.24887 | 128.27827 | 25691 ft | 369 kts | 231° |
| 2026-04-25 08:40 | 27.23229 | 128.25624 | 25114 ft | 368 kts | 231° |
| 2026-04-25 08:40 | 27.21544 | 128.23484 | 24674 ft | 364 kts | 228° |
| 2026-04-25 08:40 | 27.19633 | 128.21576 | 23814 ft | 374 kts | 220° |
| 2026-04-25 08:40 | 27.17371 | 128.20009 | 22688 ft | 390 kts | 211° |
| 2026-04-25 08:41 | 27.14854 | 128.18780 | 21938 ft | 395 kts | 206° |
| 2026-04-25 08:41 | 27.12271 | 128.17762 | 21437 ft | 390 kts | 204° |
| 2026-04-25 08:41 | 27.09708 | 128.16832 | 20969 ft | 384 kts | 203° |
| 2026-04-25 08:41 | 27.07211 | 128.15928 | 20623 ft | 379 kts | 204° |
| 2026-04-25 08:42 | 27.04682 | 128.14975 | 20273 ft | 379 kts | 205° |
| 2026-04-25 08:42 | 27.02228 | 128.14013 | 19926 ft | 378 kts | 205° |
| 2026-04-25 08:42 | 26.99757 | 128.13019 | 19580 ft | 376 kts | 205° |
| 2026-04-25 08:42 | 26.97301 | 128.12019 | 19237 ft | 375 kts | 206° |
| 2026-04-25 08:43 | 26.94844 | 128.11012 | 18879 ft | 374 kts | 206° |
| 2026-04-25 08:43 | 26.92404 | 128.10017 | 18531 ft | 372 kts | 205° |
| 2026-04-25 08:43 | 26.90787 | 128.09359 | 18292 ft | 371 kts | 206° |
| 2026-04-25 08:43 | 26.88365 | 128.08369 | 17917 ft | 370 kts | 206° |
| 2026-04-25 08:44 | 26.85953 | 128.07379 | 17571 ft | 368 kts | 206° |
| 2026-04-25 08:44 | 26.82741 | 128.06064 | 17119 ft | 366 kts | 205° |
| 2026-04-25 08:44 | 26.81158 | 128.05417 | 16887 ft | 365 kts | 205° |
| 2026-04-25 08:44 | 26.78778 | 128.04446 | 16573 ft | 364 kts | 205° |
| 2026-04-25 08:45 | 26.76403 | 128.03478 | 16219 ft | 362 kts | 205° |
| 2026-04-25 08:45 | 26.74070 | 128.02528 | 15871 ft | 361 kts | 205° |
| 2026-04-25 08:45 | 26.71716 | 128.01571 | 15556 ft | 359 kts | 205° |
| 2026-04-25 08:45 | 26.69365 | 128.00616 | 15220 ft | 358 kts | 204° |
| 2026-04-25 08:46 | 26.67025 | 127.99668 | 14890 ft | 357 kts | 204° |
| 2026-04-25 08:46 | 26.64686 | 127.98721 | 14564 ft | 356 kts | 204° |
| 2026-04-25 08:46 | 26.62365 | 127.97780 | 14219 ft | 355 kts | 204° |
| 2026-04-25 08:46 | 26.60037 | 127.96836 | 13870 ft | 355 kts | 204° |
| 2026-04-25 08:47 | 26.57717 | 127.95895 | 13498 ft | 354 kts | 204° |
| 2026-04-25 08:47 | 26.55401 | 127.94957 | 13153 ft | 353 kts | 204° |
| 2026-04-25 08:47 | 26.53103 | 127.94028 | 12824 ft | 351 kts | 204° |
| 2026-04-25 08:47 | 26.50807 | 127.93100 | 12501 ft | 350 kts | 204° |
| 2026-04-25 08:48 | 26.48525 | 127.92178 | 12173 ft | 348 kts | 204° |
| 2026-04-25 08:48 | 26.46258 | 127.91262 | 11854 ft | 346 kts | 204° |
| 2026-04-25 08:48 | 26.43988 | 127.90345 | 11519 ft | 344 kts | 204° |
| 2026-04-25 08:48 | 26.41780 | 127.89454 | 11304 ft | 335 kts | 204° |
| 2026-04-25 08:49 | 26.39625 | 127.88589 | 11017 ft | 326 kts | 204° |
| 2026-04-25 08:49 | 26.37494 | 127.87731 | 10461 ft | 325 kts | 204° |
| 2026-04-25 08:49 | 26.35383 | 127.86870 | 10035 ft | 318 kts | 204° |
| 2026-04-25 08:49 | 26.33394 | 127.86071 | 9658 ft | 291 kts | 203° |
| 2026-04-25 08:50 | 26.31542 | 127.85339 | 9118 ft | 274 kts | 204° |
| 2026-04-25 08:50 | 26.29795 | 127.84636 | 8748 ft | 266 kts | 204° |
| 2026-04-25 08:50 | 26.28052 | 127.83929 | 8398 ft | 266 kts | 204° |
| 2026-04-25 08:50 | 26.26326 | 127.83228 | 8048 ft | 263 kts | 204° |
| 2026-04-25 08:51 | 26.24612 | 127.82524 | 7694 ft | 261 kts | 205° |
| 2026-04-25 08:51 | 26.22909 | 127.81831 | 7342 ft | 260 kts | 204° |
| 2026-04-25 08:51 | 26.21211 | 127.81144 | 6976 ft | 260 kts | 203° |
| 2026-04-25 08:51 | 26.19509 | 127.80462 | 6624 ft | 259 kts | 203° |
| 2026-04-25 08:52 | 26.17837 | 127.79793 | 6270 ft | 258 kts | 203° |
| 2026-04-25 08:52 | 26.16153 | 127.79119 | 5897 ft | 257 kts | 204° |
| 2026-04-25 08:52 | 26.14445 | 127.78431 | 5560 ft | 258 kts | 203° |
| 2026-04-25 08:52 | 26.12778 | 127.77764 | 5192 ft | 258 kts | 203° |
| 2026-04-25 08:53 | 26.11135 | 127.77108 | 4960 ft | 241 kts | 203° |
| 2026-04-25 08:53 | 26.09595 | 127.76493 | 4560 ft | 230 kts | 203° |
| 2026-04-25 08:53 | 26.08115 | 127.75901 | 4202 ft | 221 kts | 203° |
| 2026-04-25 08:53 | 26.06744 | 127.75216 | 3896 ft | 210 kts | 215° |
| 2026-04-25 08:54 | 26.05704 | 127.74166 | 3590 ft | 197 kts | 236° |
| 2026-04-25 08:54 | 26.05114 | 127.72822 | 3396 ft | 192 kts | 256° |
| 2026-04-25 08:54 | 26.04933 | 127.71359 | 3175 ft | 190 kts | 268° |
| 2026-04-25 08:54 | 26.04887 | 127.69891 | 2958 ft | 188 kts | 268° |
| 2026-04-25 08:55 | 26.04849 | 127.68472 | 2826 ft | 184 kts | 268° |
| 2026-04-25 08:55 | 26.04808 | 127.67057 | 2536 ft | 182 kts | 268° |
| 2026-04-25 08:55 | 26.04947 | 127.65673 | 2266 ft | 181 kts | 288° |
| 2026-04-25 08:55 | 26.05651 | 127.64563 | 2122 ft | 173 kts | 328° |
| 2026-04-25 08:56 | 26.06711 | 127.64047 | 2072 ft | 163 kts | 340° |
| 2026-04-25 08:56 | 26.07825 | 127.63835 | 1982 ft | 162 kts | 358° |
| 2026-04-25 08:56 | 26.08950 | 127.63802 | 1781 ft | 161 kts | 354° |
| 2026-04-25 08:56 | 26.10063 | 127.63722 | 1562 ft | 159 kts | 358° |
| 2026-04-25 08:57 | 26.11161 | 127.63678 | 1344 ft | 158 kts | 358° |
| 2026-04-25 08:57 | 26.12258 | 127.63623 | 1136 ft | 158 kts | 356° |
| 2026-04-25 08:57 | 26.13355 | 127.63568 | 923 ft | 157 kts | 357° |
| 2026-04-25 08:57 | 26.14444 | 127.63518 | 721 ft | 157 kts | 357° |
| 2026-04-25 08:58 | 26.15514 | 127.63466 | 516 ft | 150 kts | 357° |
| 2026-04-25 08:58 | 26.16529 | 127.63418 | 319 ft | 142 kts | 357° |
| 2026-04-25 08:58 | 26.17494 | 127.63374 | 134 ft | 135 kts | 358° |
| 2026-04-25 08:58 | 26.18406 | 127.63330 | 27 ft | 125 kts | 358° |
| 2026-04-25 08:59 | 26.19156 | 127.63294 | 22 ft | 93 kts | 358° |
| 2026-04-25 08:59 | 26.19707 | 127.63269 | 28 ft | 66 kts | 358° |
| 2026-04-25 08:59 | 26.20069 | 127.63251 | 26 ft | 39 kts | 357° |
| 2026-04-25 08:59 | 26.20225 | 127.63244 | 24 ft | 10 kts | 358° |
| 2026-04-25 09:00 | 26.20282 | 127.63275 | 22 ft | 10 kts | 54° |
| 2026-04-25 09:00 | 26.20295 | 127.63352 | 23 ft | 11 kts | 88° |
| 2026-04-25 09:00 | 26.20299 | 127.63440 | 23 ft | 12 kts | 87° |
| 2026-04-25 09:00 | 26.20303 | 127.63544 | 23 ft | 15 kts | 88° |
| 2026-04-25 09:01 | 26.20307 | 127.63666 | 27 ft | 17 kts | 88° |
| 2026-04-25 09:01 | 26.20313 | 127.63806 | 23 ft | 19 kts | 88° |
| 2026-04-25 09:01 | 26.20319 | 127.63964 | 27 ft | 21 kts | 87° |
| 2026-04-25 09:01 | 26.20325 | 127.64136 | 26 ft | 23 kts | 87° |
| 2026-04-25 09:02 | 26.20333 | 127.64325 | 27 ft | 25 kts | 88° |
| 2026-04-25 09:02 | 26.20339 | 127.64488 | 24 ft | 13 kts | 88° |
| 2026-04-25 09:02 | 26.20342 | 127.64575 | 24 ft | 11 kts | 88° |
| 2026-04-25 09:02 | 26.20346 | 127.64667 | 23 ft | 14 kts | 88° |
| 2026-04-25 09:03 | 26.20352 | 127.64742 | 25 ft | 8 kts | 74° |
| 2026-04-25 09:03 | 26.20379 | 127.64790 | 31 ft | 7 kts | 51° |
| 2026-04-25 09:03 | 26.20412 | 127.64831 | 27 ft | 6 kts | 47° |
| 2026-04-25 09:03 | 26.20430 | 127.64852 | 27 ft | 2 kts | 47° |
| 2026-04-25 09:04 | 26.20438 | 127.64861 | 27 ft | 0 kts | 47° |
| 2026-04-25 09:04 | 26.20437 | 127.64861 | 27 ft | 0 kts | 47° |
| 2026-04-25 09:16 | 26.20438 | 127.64861 | 27 ft | 0 kts | 47° |